createdAt,value
2017-08-11T00:00:53.361Z,12.70
2017-08-11T00:03:20.941Z,12.70
2017-08-11T00:05:48.530Z,12.70
2017-08-11T00:08:17.160Z,12.60
2017-08-11T00:10:44.725Z,12.60
2017-08-11T00:13:12.297Z,12.60
2017-08-11T00:15:39.877Z,12.60
2017-08-11T00:18:07.471Z,12.60
2017-08-11T00:20:35.169Z,12.50
2017-08-11T00:23:02.795Z,12.60
2017-08-11T00:25:30.386Z,12.60
2017-08-11T00:27:57.949Z,12.60
2017-08-11T00:30:25.522Z,12.50
2017-08-11T00:32:53.100Z,12.50
2017-08-11T00:35:21.037Z,12.40
2017-08-11T00:37:48.593Z,12.40
2017-08-11T00:40:16.158Z,12.40
2017-08-11T00:42:43.733Z,12.40
2017-08-11T00:45:11.305Z,12.40
2017-08-11T00:47:38.902Z,12.40
2017-08-11T00:50:06.473Z,12.40
2017-08-11T00:52:34.038Z,12.40
2017-08-11T00:55:01.618Z,12.40
2017-08-11T00:57:29.200Z,12.30
2017-08-11T00:59:56.754Z,12.30
2017-08-11T01:02:24.706Z,12.30
2017-08-11T01:04:52.279Z,12.30
2017-08-11T01:07:19.845Z,12.20
2017-08-11T01:09:47.425Z,12.20
2017-08-11T01:12:15.020Z,12.20
2017-08-11T01:14:42.622Z,12.20
2017-08-11T01:17:10.191Z,12.20
2017-08-11T01:19:37.774Z,12.20
2017-08-11T01:22:05.345Z,12.20
2017-08-11T01:24:32.925Z,12.20
2017-08-11T01:27:00.502Z,12.10
2017-08-11T01:29:28.351Z,12.10
2017-08-11T01:31:55.927Z,12.10
2017-08-11T01:34:23.508Z,12.10
2017-08-11T01:36:51.871Z,12.10
2017-08-11T01:39:19.452Z,12.10
2017-08-11T01:41:47.872Z,12.20
2017-08-11T01:44:15.437Z,12.20
2017-08-11T01:46:43.032Z,12.20
2017-08-11T01:49:10.602Z,12.30
2017-08-11T01:51:38.947Z,12.20
2017-08-11T01:54:06.529Z,12.20
2017-08-11T01:56:34.112Z,12.10
2017-08-11T01:59:01.696Z,12.10
2017-08-11T02:01:29.268Z,12.10
2017-08-11T02:03:56.858Z,12.10
2017-08-11T02:06:24.410Z,12.10
2017-08-11T02:08:51.990Z,12.20
2017-08-11T02:11:20.321Z,12.20
2017-08-11T02:13:48.189Z,12.20
2017-08-11T02:16:15.762Z,12.20
2017-08-11T02:18:43.325Z,12.30
2017-08-11T02:21:10.913Z,12.30
2017-08-11T02:23:39.230Z,12.30
2017-08-11T02:26:06.810Z,12.30
2017-08-11T02:28:34.385Z,12.30
2017-08-11T02:31:01.956Z,12.30
2017-08-11T02:33:29.517Z,12.20
2017-08-11T02:35:58.137Z,12.30
2017-08-11T02:38:25.691Z,12.20
2017-08-11T02:40:53.248Z,12.30
2017-08-11T02:43:20.823Z,12.30
2017-08-11T02:45:48.407Z,12.30
2017-08-11T02:48:15.984Z,12.30
2017-08-11T02:50:43.578Z,12.30
2017-08-11T02:53:11.159Z,12.20
2017-08-11T02:55:38.720Z,12.20
2017-08-11T02:58:06.614Z,12.20
2017-08-11T03:00:34.190Z,12.30
2017-08-11T03:03:01.896Z,12.20
2017-08-11T03:05:29.491Z,12.30
2017-08-11T03:07:57.080Z,12.30
2017-08-11T03:10:25.439Z,12.30
2017-08-11T03:12:53.018Z,12.30
2017-08-11T03:15:21.381Z,12.30
2017-08-11T03:17:48.952Z,12.30
2017-08-11T03:20:16.884Z,12.20
2017-08-11T03:22:44.456Z,12.20
2017-08-11T03:25:12.014Z,12.30
2017-08-11T03:27:39.595Z,12.30
2017-08-11T03:30:07.160Z,12.30
2017-08-11T03:32:35.513Z,12.30
2017-08-11T03:35:03.084Z,12.30
2017-08-11T03:37:30.654Z,12.30
2017-08-11T03:39:58.992Z,12.40
2017-08-11T03:42:26.570Z,12.40
2017-08-11T03:44:54.143Z,12.40
2017-08-11T03:47:22.795Z,12.50
2017-08-11T03:49:50.362Z,12.50
2017-08-11T03:52:17.921Z,12.60
2017-08-11T03:54:45.504Z,12.60
2017-08-11T03:57:13.846Z,12.60
2017-08-11T03:59:41.420Z,12.60
2017-08-11T04:02:08.988Z,12.60
2017-08-11T04:04:36.576Z,12.50
2017-08-11T04:07:04.914Z,12.50
2017-08-11T04:09:32.488Z,12.40
2017-08-11T04:12:00.061Z,12.40
2017-08-11T04:14:28.727Z,12.40
2017-08-11T04:16:56.279Z,12.40
2017-08-11T04:19:23.833Z,12.40
2017-08-11T04:21:51.412Z,12.30
2017-08-11T04:24:18.984Z,12.30
2017-08-11T04:26:47.333Z,12.30
2017-08-11T04:29:14.890Z,12.30
2017-08-11T04:31:42.745Z,12.30
2017-08-11T04:34:10.313Z,12.30
2017-08-11T04:36:37.871Z,12.30
2017-08-11T04:39:05.456Z,12.30
2017-08-11T04:41:33.799Z,12.30
2017-08-11T04:44:01.411Z,12.30
2017-08-11T04:46:28.979Z,12.30
2017-08-11T04:48:56.550Z,12.30
2017-08-11T04:51:24.116Z,12.40
2017-08-11T04:53:51.694Z,12.50
2017-08-11T04:56:19.300Z,12.50
2017-08-11T04:58:47.632Z,12.50
2017-08-11T05:01:15.210Z,12.50
2017-08-11T05:03:42.838Z,12.50
2017-08-11T05:06:10.433Z,12.50
2017-08-11T05:08:37.994Z,12.60
2017-08-11T05:11:05.576Z,12.50
2017-08-11T05:13:33.146Z,12.50
2017-08-11T05:16:01.038Z,12.60
2017-08-11T05:18:28.626Z,12.60
2017-08-11T05:20:56.209Z,12.60
2017-08-11T05:23:24.547Z,12.70
2017-08-11T05:25:52.123Z,12.70
2017-08-11T05:28:19.703Z,12.60
2017-08-11T05:30:47.268Z,12.50
2017-08-11T05:33:15.618Z,12.60
2017-08-11T05:35:43.179Z,12.60
2017-08-11T05:38:10.763Z,12.60
2017-08-11T05:40:39.120Z,12.70
2017-08-11T05:43:06.978Z,12.60
2017-08-11T05:45:34.533Z,12.70
2017-08-11T05:48:02.103Z,12.70
2017-08-11T05:50:29.691Z,12.70
2017-08-11T05:52:57.847Z,12.80
2017-08-11T05:55:26.193Z,12.70
2017-08-11T05:57:53.810Z,12.70
2017-08-11T06:00:21.395Z,12.80
2017-08-11T06:02:49.035Z,12.80
2017-08-11T06:05:16.623Z,12.70
2017-08-11T06:07:44.200Z,12.70
2017-08-11T06:10:11.814Z,12.80
2017-08-11T06:12:39.374Z,12.80
2017-08-11T06:15:06.922Z,12.80
2017-08-11T06:17:34.513Z,12.80
2017-08-11T06:20:02.119Z,12.80
2017-08-11T06:22:30.464Z,12.80
2017-08-11T06:24:58.013Z,12.80
2017-08-11T06:27:25.599Z,12.80
2017-08-11T06:29:53.163Z,12.80
2017-08-11T06:32:21.803Z,13.00
2017-08-11T06:34:49.363Z,13.00
2017-08-11T06:37:17.201Z,13.00
2017-08-11T06:39:44.823Z,13.00
2017-08-11T06:42:12.404Z,13.10
2017-08-11T06:44:40.754Z,13.10
2017-08-11T06:47:08.311Z,13.10
2017-08-11T06:49:35.881Z,13.10
2017-08-11T06:52:03.477Z,13.10
2017-08-11T06:54:31.079Z,13.00
2017-08-11T06:56:58.656Z,13.00
2017-08-11T06:59:26.503Z,13.00
2017-08-11T07:01:54.085Z,13.00
2017-08-11T07:04:21.653Z,13.10
2017-08-11T07:06:50.014Z,13.10
2017-08-11T07:09:17.567Z,13.10
2017-08-11T07:11:45.197Z,13.20
2017-08-11T07:14:12.785Z,13.20
2017-08-11T07:16:40.362Z,13.20
2017-08-11T07:19:07.967Z,13.30
2017-08-11T07:21:35.543Z,13.40
2017-08-11T07:24:03.107Z,13.40
2017-08-11T07:26:30.980Z,13.40
2017-08-11T07:31:32.859Z,13.40
2017-08-11T07:34:00.439Z,13.40
2017-08-11T07:36:28.770Z,13.40
2017-08-11T07:38:56.364Z,13.40
2017-08-11T07:41:23.934Z,13.30
2017-08-11T07:43:51.523Z,13.30
2017-08-11T07:46:19.302Z,13.40
2017-08-11T07:48:46.889Z,13.40
2017-08-11T07:51:14.489Z,13.40
2017-08-11T07:53:43.135Z,13.50
2017-08-11T07:56:10.694Z,13.50
2017-08-11T07:58:38.269Z,13.50
2017-08-11T08:01:05.859Z,13.50
2017-08-11T08:03:34.193Z,13.50
2017-08-11T08:06:01.847Z,13.50
2017-08-11T08:08:29.427Z,13.50
2017-08-11T08:10:57.290Z,13.50
2017-08-11T08:13:24.855Z,13.50
2017-08-11T08:15:52.423Z,13.50
2017-08-11T08:18:20.785Z,13.40
2017-08-11T08:20:48.432Z,13.40
2017-08-11T08:23:16.010Z,13.40
2017-08-11T08:25:43.570Z,13.40
2017-08-11T08:28:11.424Z,13.40
2017-08-11T08:30:39.008Z,13.40
2017-08-11T08:33:07.387Z,13.40
2017-08-11T08:35:34.986Z,13.40
2017-08-11T08:38:02.558Z,13.40
2017-08-11T08:40:30.157Z,13.40
2017-08-11T08:42:58.505Z,13.40
2017-08-11T08:45:26.078Z,13.40
2017-08-11T08:47:53.651Z,13.40
2017-08-11T08:50:21.998Z,13.40
2017-08-11T08:52:49.566Z,13.40
2017-08-11T08:55:17.450Z,13.40
2017-08-11T08:57:45.065Z,13.40
2017-08-11T09:00:12.650Z,13.40
2017-08-11T09:02:40.234Z,13.40
2017-08-11T09:05:08.589Z,13.60
2017-08-11T09:07:36.188Z,13.60
2017-08-11T09:10:03.777Z,13.70
2017-08-11T09:12:31.362Z,13.80
2017-08-11T09:14:58.945Z,13.90
2017-08-11T09:17:27.600Z,13.90
2017-08-11T09:19:55.187Z,13.90
2017-08-11T09:22:23.547Z,14.00
2017-08-11T09:25:03.122Z,14.00
2017-08-11T09:27:43.660Z,14.10
2017-08-11T09:30:23.154Z,14.10
2017-08-11T09:33:03.049Z,14.10
2017-08-11T09:35:42.586Z,14.00
2017-08-11T09:38:10.582Z,14.00
2017-08-11T09:40:38.930Z,14.00
2017-08-11T09:43:06.507Z,14.00
2017-08-11T09:45:34.877Z,14.00
2017-08-11T09:48:03.219Z,14.00
2017-08-11T09:50:30.810Z,14.00
2017-08-11T09:52:58.646Z,14.00
2017-08-11T09:55:26.246Z,13.90
2017-08-11T09:57:54.593Z,13.90
2017-08-11T10:00:23.128Z,13.90
2017-08-11T10:02:50.693Z,13.90
2017-08-11T10:05:18.289Z,13.90
2017-08-11T10:07:45.884Z,13.80
2017-08-11T10:10:14.518Z,13.90
2017-08-11T10:12:42.125Z,13.90
2017-08-11T10:15:10.476Z,13.90
2017-08-11T10:17:38.061Z,13.90
2017-08-11T10:20:06.402Z,13.80
2017-08-11T10:22:34.003Z,13.80
2017-08-11T10:25:02.355Z,13.80
2017-08-11T10:27:29.994Z,13.80
2017-08-11T10:29:57.590Z,13.90
2017-08-11T10:32:25.948Z,13.90
2017-08-11T10:34:53.525Z,13.90
2017-08-11T10:37:21.106Z,14.00
2017-08-11T10:39:48.707Z,14.00
2017-08-11T10:42:16.286Z,13.90
2017-08-11T10:44:43.880Z,13.80
2017-08-11T10:47:12.226Z,13.70
2017-08-11T10:49:39.800Z,13.70
2017-08-11T10:52:08.157Z,13.80
2017-08-11T10:54:35.748Z,13.80
2017-08-11T10:57:04.095Z,13.70
2017-08-11T10:59:31.702Z,13.70
2017-08-11T11:01:59.276Z,13.60
2017-08-11T11:04:26.856Z,13.50
2017-08-11T11:06:54.431Z,13.50
2017-08-11T11:09:22.319Z,13.50
2017-08-11T11:11:50.668Z,13.60
2017-08-11T11:14:18.251Z,13.60
2017-08-11T11:16:45.846Z,13.60
2017-08-11T11:19:13.413Z,13.60
2017-08-11T11:21:40.998Z,13.60
2017-08-11T11:24:08.632Z,13.60
2017-08-11T11:26:36.536Z,13.60
2017-08-11T11:29:04.117Z,13.70
2017-08-11T11:31:32.500Z,13.90
2017-08-11T11:34:00.845Z,14.00
2017-08-11T11:36:28.421Z,14.00
2017-08-11T11:38:56.032Z,14.10
2017-08-11T11:41:23.611Z,14.20
2017-08-11T11:43:51.200Z,14.30
2017-08-11T11:46:18.776Z,14.40
2017-08-11T11:48:47.425Z,14.50
2017-08-11T11:51:14.991Z,14.50
2017-08-11T11:53:42.545Z,14.50
2017-08-11T11:56:10.136Z,14.50
2017-08-11T11:58:38.494Z,14.70
2017-08-11T12:01:06.091Z,14.70
2017-08-11T12:03:33.680Z,14.90
2017-08-11T12:06:01.258Z,15.20
2017-08-11T12:08:28.839Z,15.20
2017-08-11T12:10:56.793Z,15.20
2017-08-11T12:13:24.371Z,15.20
2017-08-11T12:15:52.711Z,15.30
2017-08-11T12:18:20.292Z,15.30
2017-08-11T12:20:47.864Z,15.40
2017-08-11T12:23:16.212Z,15.70
2017-08-11T12:25:43.784Z,15.70
2017-08-11T12:28:11.428Z,15.70
2017-08-11T12:30:39.013Z,15.70
2017-08-11T12:33:06.612Z,15.60
2017-08-11T12:35:34.191Z,15.60
2017-08-11T12:38:02.088Z,15.60
2017-08-11T12:40:29.687Z,15.60
2017-08-11T12:42:57.339Z,15.50
2017-08-11T12:45:25.676Z,15.40
2017-08-11T12:47:53.270Z,15.40
2017-08-11T12:50:21.616Z,15.20
2017-08-11T12:52:49.185Z,15.20
2017-08-11T12:55:16.781Z,15.20
2017-08-11T12:57:44.372Z,15.20
2017-08-11T13:00:13.028Z,15.10
2017-08-11T13:02:40.600Z,15.10
2017-08-11T13:05:08.168Z,15.20
2017-08-11T13:07:36.528Z,15.40
2017-08-11T13:10:04.129Z,15.40
2017-08-11T13:12:31.721Z,15.50
2017-08-11T13:14:59.299Z,15.40
2017-08-11T13:17:27.147Z,15.50
2017-08-11T13:19:54.726Z,15.60
2017-08-11T13:22:22.317Z,15.50
2017-08-11T13:24:50.704Z,15.40
2017-08-11T13:27:18.300Z,15.30
2017-08-11T13:29:45.942Z,15.40
2017-08-11T13:32:13.525Z,15.30
2017-08-11T13:34:41.415Z,15.30
2017-08-11T13:37:09.003Z,15.20
2017-08-11T13:39:37.330Z,15.10
2017-08-11T13:42:04.906Z,15.00
2017-08-11T13:44:32.516Z,15.00
2017-08-11T13:47:00.105Z,14.90
2017-08-11T13:49:27.671Z,14.70
2017-08-11T13:51:55.542Z,14.60
2017-08-11T13:54:23.106Z,14.40
2017-08-11T13:56:50.666Z,14.40
2017-08-11T13:59:18.258Z,14.50
2017-08-11T14:01:45.851Z,14.50
2017-08-11T14:04:13.442Z,14.60
2017-08-11T14:06:41.005Z,14.60
2017-08-11T14:09:08.600Z,14.70
2017-08-11T14:11:36.205Z,14.60
2017-08-11T14:14:04.086Z,14.60
2017-08-11T14:16:31.667Z,14.70
2017-08-11T14:18:59.276Z,14.60
2017-08-11T14:21:27.723Z,14.60
2017-08-11T14:24:12.668Z,14.70
2017-08-11T14:26:40.321Z,14.70
2017-08-11T14:29:07.884Z,14.70
2017-08-11T14:31:35.467Z,14.70
2017-08-11T14:34:03.801Z,14.70
2017-08-11T14:36:31.386Z,14.60
2017-08-11T14:38:58.959Z,14.60
2017-08-11T14:41:27.666Z,14.60
2017-08-11T14:43:55.265Z,14.60
2017-08-11T14:46:23.622Z,14.50
2017-08-11T14:48:51.204Z,14.50
2017-08-11T14:51:18.773Z,14.50
2017-08-11T14:53:46.354Z,14.50
2017-08-11T14:56:13.961Z,14.50
2017-08-11T14:58:41.566Z,14.50
2017-08-11T15:01:09.136Z,14.50
2017-08-11T15:03:36.994Z,14.50
2017-08-11T15:06:04.568Z,14.50
2017-08-11T15:08:32.161Z,14.40
2017-08-11T15:10:59.765Z,14.40
2017-08-11T15:13:27.362Z,14.40
2017-08-11T15:15:55.709Z,14.60
2017-08-11T15:18:23.303Z,14.60
2017-08-11T15:20:50.941Z,14.80
2017-08-11T15:23:18.522Z,14.90
2017-08-11T15:25:47.126Z,15.30
2017-08-11T15:28:14.784Z,15.20
2017-08-11T15:30:42.388Z,15.70
2017-08-11T15:33:09.972Z,16.50
2017-08-11T15:35:37.556Z,17.00
2017-08-11T15:38:05.178Z,17.40
2017-08-11T15:40:33.655Z,17.40
2017-08-11T15:43:01.294Z,17.60
2017-08-11T15:45:28.873Z,17.80
2017-08-11T15:47:56.736Z,17.60
2017-08-11T15:50:24.324Z,17.30
2017-08-11T15:52:51.923Z,17.10
2017-08-11T15:55:19.507Z,16.70
2017-08-11T15:57:47.064Z,16.30
2017-08-11T16:00:14.641Z,16.00
2017-08-11T16:02:42.372Z,15.90
2017-08-11T16:05:09.963Z,15.80
2017-08-11T16:07:37.540Z,15.70
2017-08-11T16:10:05.494Z,15.60
2017-08-11T16:12:33.068Z,15.50
2017-08-11T16:15:01.416Z,15.60
2017-08-11T16:17:29.089Z,15.60
2017-08-11T16:19:56.713Z,15.80
2017-08-11T16:22:24.303Z,15.90
2017-08-11T16:24:51.875Z,16.30
2017-08-11T16:27:19.470Z,17.20
2017-08-11T16:29:47.055Z,17.70
2017-08-11T16:32:14.642Z,17.60
2017-08-11T16:34:42.212Z,17.60
2017-08-11T16:37:10.179Z,17.40
2017-08-11T16:39:37.739Z,17.40
2017-08-11T16:42:05.301Z,17.20
2017-08-11T16:44:32.888Z,17.00
2017-08-11T16:47:00.468Z,16.90
2017-08-11T16:49:28.053Z,16.70
2017-08-11T16:51:55.646Z,16.40
2017-08-11T16:54:24.040Z,16.00
2017-08-11T16:56:51.638Z,16.00
2017-08-11T16:59:19.243Z,15.80
2017-08-11T17:01:46.812Z,15.50
2017-08-11T17:04:15.499Z,15.00
2017-08-11T17:06:43.827Z,14.90
2017-08-11T17:09:11.514Z,14.90
2017-08-11T17:11:39.105Z,14.90
2017-08-11T17:14:06.675Z,14.80
2017-08-11T17:16:34.327Z,14.80
2017-08-11T17:19:01.922Z,14.70
2017-08-11T17:21:29.507Z,14.70
2017-08-11T17:23:57.165Z,14.70
2017-08-11T17:26:25.168Z,14.70
2017-08-11T17:28:52.770Z,14.70
2017-08-11T17:31:20.342Z,14.70
2017-08-11T17:33:47.989Z,14.60
2017-08-11T17:36:15.612Z,14.60
2017-08-11T17:38:43.218Z,14.50
2017-08-11T17:41:10.806Z,14.50
2017-08-11T17:43:38.398Z,14.50
2017-08-11T17:46:06.003Z,14.50
2017-08-11T17:48:33.902Z,14.40
2017-08-11T17:51:01.502Z,14.40
2017-08-11T17:53:29.108Z,14.40
2017-08-11T17:55:56.691Z,14.30
2017-08-11T17:58:24.264Z,14.30
2017-08-11T18:00:52.027Z,14.30
2017-08-11T18:03:19.643Z,14.30
2017-08-11T18:05:47.297Z,14.30
2017-08-11T18:08:15.225Z,14.30
2017-08-11T18:10:43.141Z,14.30
2017-08-11T18:13:10.729Z,14.20
2017-08-11T18:15:38.312Z,14.20
2017-08-11T18:18:05.923Z,14.20
2017-08-11T18:20:34.289Z,14.10
2017-08-11T18:23:01.995Z,14.10
2017-08-11T18:25:29.558Z,14.10
2017-08-11T18:27:57.201Z,14.10
2017-08-11T18:30:25.541Z,14.10
2017-08-11T18:32:53.155Z,14.00
2017-08-11T18:35:20.731Z,14.00
2017-08-11T18:37:48.577Z,14.00
2017-08-11T18:40:16.160Z,14.00
2017-08-11T18:42:43.732Z,14.00
2017-08-11T18:45:11.347Z,14.00
2017-08-11T18:47:38.932Z,14.00
2017-08-11T18:50:06.541Z,14.00
2017-08-11T18:52:34.908Z,13.90
2017-08-11T18:55:02.492Z,13.90
2017-08-11T18:57:30.843Z,13.90
2017-08-11T18:59:58.486Z,13.90
2017-08-11T19:02:26.104Z,13.90
2017-08-11T19:04:53.708Z,13.80
2017-08-11T19:07:21.294Z,13.80
2017-08-11T19:09:49.180Z,13.80
2017-08-11T19:12:16.803Z,13.80
2017-08-11T19:14:44.380Z,13.70
2017-08-11T19:17:11.980Z,13.70
2017-08-11T19:19:39.590Z,13.70
2017-08-11T19:22:07.206Z,13.70
2017-08-11T19:24:34.819Z,13.60
2017-08-11T19:27:02.421Z,13.60
2017-08-11T19:29:30.029Z,13.60
2017-08-11T19:31:57.708Z,13.60
2017-08-11T19:34:25.305Z,13.60
2017-08-11T19:36:52.940Z,13.60
2017-08-11T19:39:21.313Z,13.60
2017-08-11T19:41:49.296Z,13.60
2017-08-11T19:44:16.882Z,13.60
2017-08-11T19:46:44.493Z,13.60
2017-08-11T19:49:12.889Z,13.60
2017-08-11T19:51:41.250Z,13.60
2017-08-11T19:54:09.612Z,13.60
2017-08-11T19:56:37.188Z,13.60
2017-08-11T19:59:05.549Z,13.60
2017-08-11T20:01:33.121Z,13.60
2017-08-11T20:04:01.486Z,13.60
2017-08-11T20:06:29.077Z,13.60
2017-08-11T20:08:56.667Z,13.60
2017-08-11T20:11:24.268Z,13.60
2017-08-11T20:13:52.140Z,13.60
2017-08-11T20:16:19.729Z,13.60
2017-08-11T20:18:47.311Z,13.60
2017-08-11T20:21:14.929Z,13.60
2017-08-11T20:23:42.511Z,13.60
2017-08-11T20:26:10.108Z,13.60
2017-08-11T20:28:37.710Z,13.60
2017-08-11T20:31:06.081Z,13.60
2017-08-11T20:33:33.698Z,13.60
2017-08-11T20:36:01.293Z,13.60
2017-08-11T20:38:28.900Z,13.60
2017-08-11T20:40:56.792Z,13.60
2017-08-11T20:43:24.379Z,13.60
2017-08-11T20:45:52.735Z,13.60
2017-08-11T20:48:20.323Z,13.60
2017-08-11T20:50:48.664Z,13.60
2017-08-11T20:53:16.279Z,13.60
2017-08-11T20:55:43.850Z,13.60
2017-08-11T20:58:11.434Z,13.60
2017-08-11T21:00:39.026Z,13.60
2017-08-11T21:03:06.984Z,13.60
2017-08-11T21:05:34.569Z,13.60
2017-08-11T21:08:02.907Z,13.60
2017-08-11T21:10:30.514Z,13.60
2017-08-11T21:12:58.108Z,13.60
2017-08-11T21:15:25.731Z,13.60
2017-08-11T21:17:54.097Z,13.60
2017-08-11T21:20:21.728Z,13.60
2017-08-11T21:22:49.367Z,13.60
2017-08-11T21:25:16.948Z,13.60
2017-08-11T21:27:44.532Z,13.60
2017-08-11T21:30:13.194Z,13.60
2017-08-11T21:32:40.771Z,13.60
2017-08-11T21:35:08.342Z,13.60
2017-08-11T21:37:36.738Z,13.60
2017-08-11T21:40:04.325Z,13.60
2017-08-11T21:42:31.924Z,13.60
2017-08-11T21:44:59.526Z,13.60
2017-08-11T21:47:27.209Z,13.60
2017-08-11T21:49:54.827Z,13.60
2017-08-11T21:52:23.234Z,13.70
2017-08-11T21:54:50.808Z,13.60
2017-08-11T21:57:18.672Z,13.70
2017-08-11T21:59:46.277Z,13.60
2017-08-11T22:02:14.624Z,13.60
2017-08-11T22:04:42.222Z,13.60
2017-08-11T22:07:10.551Z,13.60
2017-08-11T22:09:38.132Z,13.60
2017-08-11T22:12:05.712Z,13.60
2017-08-11T22:14:34.073Z,13.60
2017-08-11T22:17:01.634Z,13.60
2017-08-11T22:19:29.474Z,13.60
2017-08-11T22:21:57.046Z,13.60
2017-08-11T22:24:24.641Z,13.60
2017-08-11T22:26:53.004Z,13.50
2017-08-11T22:29:20.581Z,13.50
2017-08-11T22:31:48.934Z,13.50
2017-08-11T22:34:16.517Z,13.50
2017-08-11T22:36:44.118Z,13.50
2017-08-11T22:39:11.682Z,13.50
2017-08-11T22:41:39.280Z,13.50
2017-08-11T22:44:07.609Z,13.50
2017-08-11T22:46:35.511Z,13.50
2017-08-11T22:49:03.112Z,13.50
2017-08-11T22:51:30.682Z,13.50
2017-08-11T22:53:58.277Z,13.50
2017-08-11T22:56:25.846Z,13.50
2017-08-11T22:58:53.429Z,13.60
2017-08-11T23:01:21.004Z,13.60
2017-08-11T23:03:48.597Z,13.60
2017-08-11T23:06:16.177Z,13.60
2017-08-11T23:08:44.552Z,13.50
2017-08-11T23:11:12.128Z,13.50
2017-08-11T23:13:39.983Z,13.50
2017-08-11T23:16:07.564Z,13.50
2017-08-11T23:18:35.903Z,13.60
2017-08-11T23:21:03.488Z,13.60
2017-08-11T23:23:31.822Z,13.60
2017-08-11T23:25:59.432Z,13.60
2017-08-11T23:28:27.880Z,13.60
2017-08-11T23:30:55.460Z,13.60
2017-08-11T23:33:23.048Z,13.60
2017-08-11T23:35:51.408Z,13.60
2017-08-11T23:38:19.766Z,13.60
2017-08-11T23:40:47.625Z,13.60
2017-08-11T23:43:15.201Z,13.60
2017-08-11T23:45:42.776Z,13.60
2017-08-11T23:48:11.151Z,13.60
2017-08-11T23:50:39.498Z,13.60
2017-08-11T23:53:07.088Z,13.60
2017-08-11T23:55:35.430Z,13.60
2017-08-11T23:58:03.016Z,13.60
